createdAt,value
2023-03-11T00:00:03.355Z,957.50
2023-03-11T00:01:03.377Z,957.77
2023-03-11T00:02:03.568Z,957.69
2023-03-11T00:03:03.392Z,957.72
2023-03-11T00:04:03.333Z,957.58
2023-03-11T00:05:03.414Z,957.75
2023-03-11T00:06:03.459Z,957.69
2023-03-11T00:07:03.520Z,957.91
2023-03-11T00:08:03.501Z,957.59
2023-03-11T00:09:03.514Z,957.77
2023-03-11T00:10:03.558Z,957.73
2023-03-11T00:11:03.690Z,957.86
2023-03-11T00:12:03.617Z,957.94
2023-03-11T00:13:03.711Z,957.89
2023-03-11T00:14:03.807Z,957.97
2023-03-11T00:15:03.734Z,957.86
2023-03-11T00:16:03.814Z,957.97
2023-03-11T00:17:03.860Z,958.06
2023-03-11T00:18:03.736Z,958.00
2023-03-11T00:19:03.928Z,958.06
2023-03-11T00:20:03.910Z,958.12
2023-03-11T00:21:03.933Z,958.09
2023-03-11T00:22:02.908Z,958.15
2023-03-11T00:23:02.929Z,958.01
2023-03-11T00:24:02.988Z,958.23
2023-03-11T00:25:02.935Z,958.15
2023-03-11T00:26:02.973Z,958.15
2023-03-11T00:27:03.938Z,958.15
2023-03-11T00:28:03.006Z,958.12
2023-03-11T00:29:02.921Z,958.29
2023-03-11T00:30:02.945Z,958.41
2023-03-11T00:31:03.051Z,958.35
2023-03-11T00:32:03.036Z,958.32
2023-03-11T00:33:03.080Z,958.58
2023-03-11T00:34:03.101Z,958.47
2023-03-11T00:35:03.195Z,958.42
2023-03-11T00:36:03.280Z,958.42
2023-03-11T00:37:03.240Z,958.44
2023-03-11T00:38:03.293Z,958.47
2023-03-11T00:39:03.274Z,958.45
2023-03-11T00:40:03.316Z,958.47
2023-03-11T00:41:03.297Z,958.39
2023-03-11T00:42:03.269Z,958.39
2023-03-11T00:43:03.278Z,958.42
2023-03-11T00:44:03.276Z,958.48
2023-03-11T00:45:03.330Z,958.59
2023-03-11T00:46:03.365Z,958.53
2023-03-11T00:47:03.332Z,958.59
2023-03-11T00:48:03.281Z,958.54
2023-03-11T00:49:03.313Z,958.57
2023-03-11T00:50:03.455Z,958.62
2023-03-11T00:51:03.426Z,958.85
2023-03-11T00:52:03.439Z,958.88
2023-03-11T00:53:03.392Z,958.63
2023-03-11T00:54:03.568Z,958.74
2023-03-11T00:55:03.490Z,958.88
2023-03-11T00:56:03.441Z,958.77
2023-03-11T00:57:03.459Z,958.85
2023-03-11T00:58:03.413Z,958.85
2023-03-11T00:59:03.404Z,958.85
2023-03-11T01:00:03.375Z,958.99
2023-03-11T01:01:03.465Z,958.99
2023-03-11T01:02:03.427Z,958.99
2023-03-11T01:03:03.410Z,958.91
2023-03-11T01:04:03.412Z,958.91
2023-03-11T01:05:03.509Z,958.94
2023-03-11T01:06:03.461Z,959.08
2023-03-11T01:07:03.509Z,959.06
2023-03-11T01:08:03.670Z,959.00
2023-03-11T01:09:03.540Z,959.08
2023-03-11T01:10:03.814Z,959.21
2023-03-11T01:11:02.898Z,959.03
2023-03-11T01:12:03.939Z,959.22
2023-03-11T01:13:03.884Z,959.19
2023-03-11T01:14:03.048Z,959.22
2023-03-11T01:15:03.060Z,959.25
2023-03-11T01:16:03.264Z,959.30
2023-03-11T01:17:03.263Z,959.39
2023-03-11T01:18:03.280Z,959.41
2023-03-11T01:19:03.347Z,959.22
2023-03-11T01:20:03.293Z,959.44
2023-03-11T01:21:03.263Z,959.47
2023-03-11T01:22:03.402Z,959.50
2023-03-11T01:23:03.436Z,959.50
2023-03-11T01:24:03.508Z,959.50
2023-03-11T01:25:03.575Z,959.39
2023-03-11T01:26:03.592Z,959.47
2023-03-11T01:27:03.577Z,959.67
2023-03-11T01:28:03.590Z,959.75
2023-03-11T01:29:03.623Z,959.75
2023-03-11T01:30:03.568Z,959.83
2023-03-11T01:31:03.663Z,959.75
2023-03-11T01:32:03.627Z,959.83
2023-03-11T01:33:03.637Z,959.72
2023-03-11T01:34:03.661Z,959.97
2023-03-11T01:35:03.760Z,959.95
2023-03-11T01:36:03.865Z,959.78
2023-03-11T01:37:03.671Z,959.80
2023-03-11T01:38:03.784Z,959.92
2023-03-11T01:39:02.979Z,959.92
2023-03-11T01:40:02.944Z,959.95
2023-03-11T01:41:03.926Z,960.03
2023-03-11T01:42:03.892Z,960.11
2023-03-11T01:43:03.084Z,960.11
2023-03-11T01:44:02.971Z,960.17
2023-03-11T01:45:02.888Z,960.06
2023-03-11T01:46:03.064Z,960.14
2023-03-11T01:47:03.092Z,960.22
2023-03-11T01:48:03.070Z,960.25
2023-03-11T01:49:03.136Z,960.11
2023-03-11T01:50:03.204Z,960.31
2023-03-11T01:51:03.179Z,960.42
2023-03-11T01:52:03.210Z,960.31
2023-03-11T01:53:03.958Z,960.28
2023-03-11T01:54:03.907Z,960.45
2023-03-11T01:55:03.009Z,960.34
2023-03-11T01:56:03.046Z,960.42
2023-03-11T01:57:03.070Z,960.54
2023-03-11T01:58:03.050Z,960.45
2023-03-11T01:59:03.041Z,960.59
2023-03-11T02:00:03.125Z,960.54
2023-03-11T02:01:03.136Z,960.73
2023-03-11T02:02:03.233Z,960.48
2023-03-11T02:03:03.273Z,960.59
2023-03-11T02:04:03.124Z,960.67
2023-03-11T02:05:03.209Z,960.83
2023-03-11T02:06:03.305Z,960.67
2023-03-11T02:07:03.258Z,960.62
2023-03-11T02:08:03.258Z,960.59
2023-03-11T02:09:03.266Z,960.70
2023-03-11T02:10:03.323Z,960.89
2023-03-11T02:11:03.404Z,960.89
2023-03-11T02:12:03.564Z,960.97
2023-03-11T02:13:03.637Z,961.00
2023-03-11T02:14:03.552Z,961.05
2023-03-11T02:15:03.626Z,961.00
2023-03-11T02:16:03.819Z,961.00
2023-03-11T02:17:03.748Z,961.19
2023-03-11T02:18:03.675Z,961.19
2023-03-11T02:19:03.758Z,961.22
2023-03-11T02:20:03.832Z,961.17
2023-03-11T02:21:03.860Z,961.20
2023-03-11T02:22:02.958Z,961.47
2023-03-11T02:23:03.101Z,961.53
2023-03-11T02:24:03.094Z,961.59
2023-03-11T02:25:03.072Z,961.25
2023-03-11T02:26:03.153Z,961.42
2023-03-11T02:27:02.961Z,961.59
2023-03-11T02:28:02.977Z,961.78
2023-03-11T02:29:03.100Z,961.67
2023-03-11T02:30:03.022Z,961.67
2023-03-11T02:31:03.199Z,961.61
2023-03-11T02:32:03.243Z,961.64
2023-03-11T02:33:03.375Z,961.78
2023-03-11T02:34:03.481Z,961.97
2023-03-11T02:35:03.442Z,961.86
2023-03-11T02:36:03.658Z,961.86
2023-03-11T02:37:03.477Z,962.09
2023-03-11T02:38:03.437Z,961.95
2023-03-11T02:39:03.531Z,961.89
2023-03-11T02:40:03.547Z,961.97
2023-03-11T02:41:03.568Z,962.14
2023-03-11T02:42:03.493Z,962.11
2023-03-11T02:43:03.557Z,962.33
2023-03-11T02:44:03.623Z,962.17
2023-03-11T02:45:03.642Z,962.33
2023-03-11T02:46:03.689Z,962.52
2023-03-11T02:47:03.844Z,962.17
2023-03-11T02:48:03.662Z,962.39
2023-03-11T02:49:03.833Z,962.47
2023-03-11T02:50:03.767Z,962.52
2023-03-11T02:51:03.744Z,962.52
2023-03-11T02:52:03.720Z,962.49
2023-03-11T02:53:03.728Z,962.41
2023-03-11T02:54:03.762Z,962.52
2023-03-11T02:55:03.756Z,962.52
2023-03-11T02:56:03.768Z,962.57
2023-03-11T02:57:03.741Z,962.71
2023-03-11T02:58:03.895Z,962.74
2023-03-11T02:59:03.856Z,962.71
2023-03-11T03:00:03.904Z,962.88
2023-03-11T03:01:04.038Z,962.80
2023-03-11T03:02:03.876Z,962.71
2023-03-11T03:03:02.917Z,962.85
2023-03-11T03:04:03.016Z,962.74
2023-03-11T03:05:02.943Z,962.82
2023-03-11T03:06:03.014Z,963.02
2023-03-11T03:07:03.160Z,962.96
2023-03-11T03:08:03.141Z,962.94
2023-03-11T03:09:03.118Z,962.99
2023-03-11T03:10:03.033Z,963.07
2023-03-11T03:11:03.012Z,963.07
2023-03-11T03:12:03.108Z,963.24
2023-03-11T03:13:03.225Z,963.05
2023-03-11T03:14:03.050Z,963.13
2023-03-11T03:15:03.119Z,963.24
2023-03-11T03:16:03.437Z,963.05
2023-03-11T03:17:03.510Z,963.22
2023-03-11T03:18:03.166Z,963.16
2023-03-11T03:19:03.280Z,963.19
2023-03-11T03:20:03.249Z,963.13
2023-03-11T03:21:03.336Z,963.16
2023-03-11T03:22:03.337Z,963.25
2023-03-11T03:23:03.268Z,963.19
2023-03-11T03:24:03.296Z,963.27
2023-03-11T03:25:03.422Z,963.36
2023-03-11T03:26:03.354Z,963.19
2023-03-11T03:27:03.380Z,963.30
2023-03-11T03:28:03.362Z,963.41
2023-03-11T03:29:03.564Z,963.47
2023-03-11T03:30:03.477Z,963.27
2023-03-11T03:31:03.439Z,963.41
2023-03-11T03:32:03.682Z,963.38
2023-03-11T03:33:03.386Z,963.49
2023-03-11T03:34:03.544Z,963.27
2023-03-11T03:35:03.474Z,963.38
2023-03-11T03:36:03.585Z,963.33
2023-03-11T03:37:03.576Z,963.50
2023-03-11T03:38:03.514Z,963.61
2023-03-11T03:39:03.538Z,963.58
2023-03-11T03:40:03.618Z,963.44
2023-03-11T03:41:03.638Z,963.53
2023-03-11T03:42:03.502Z,963.75
2023-03-11T03:43:03.510Z,963.64
2023-03-11T03:44:03.651Z,963.64
2023-03-11T03:45:03.665Z,963.61
2023-03-11T03:46:03.796Z,963.72
2023-03-11T03:47:03.776Z,963.67
2023-03-11T03:48:03.839Z,963.86
2023-03-11T03:49:03.892Z,963.75
2023-03-11T03:50:03.889Z,963.78
2023-03-11T03:51:03.852Z,963.73
2023-03-11T03:52:03.825Z,963.61
2023-03-11T03:53:03.690Z,963.87
2023-03-11T03:54:03.693Z,963.81
2023-03-11T03:55:03.702Z,963.97
2023-03-11T03:56:03.940Z,963.87
2023-03-11T03:57:03.842Z,963.97
2023-03-11T03:58:02.933Z,963.87
2023-03-11T03:59:03.854Z,963.91
2023-03-11T04:00:03.854Z,964.00
2023-03-11T04:01:03.813Z,964.05
2023-03-11T04:02:03.941Z,964.05
2023-03-11T04:03:04.070Z,964.05
2023-03-11T04:04:03.842Z,963.94
2023-03-11T04:05:03.889Z,964.11
2023-03-11T04:06:03.870Z,964.11
2023-03-11T04:07:03.964Z,964.11
2023-03-11T04:08:03.844Z,964.22
2023-03-11T04:09:03.871Z,964.11
2023-03-11T04:10:03.035Z,964.17
2023-03-11T04:11:03.110Z,964.14
2023-03-11T04:12:02.971Z,964.20
2023-03-11T04:13:03.061Z,964.03
2023-03-11T04:14:03.069Z,964.36
2023-03-11T04:15:03.121Z,964.42
2023-03-11T04:16:03.205Z,964.28
2023-03-11T04:17:03.411Z,964.45
2023-03-11T04:18:03.262Z,964.18
2023-03-11T04:19:03.302Z,964.23
2023-03-11T04:20:03.208Z,964.45
2023-03-11T04:21:03.220Z,964.57
2023-03-11T04:22:03.075Z,964.40
2023-03-11T04:23:03.214Z,964.43
2023-03-11T04:24:03.171Z,964.49
2023-03-11T04:25:03.143Z,964.54
2023-03-11T04:26:03.121Z,964.71
2023-03-11T04:27:03.126Z,964.68
2023-03-11T04:28:03.178Z,964.74
2023-03-11T04:29:03.166Z,964.77
2023-03-11T04:30:03.135Z,964.71
2023-03-11T04:31:03.398Z,964.87
2023-03-11T04:32:03.253Z,964.65
2023-03-11T04:33:03.281Z,965.01
2023-03-11T04:34:03.332Z,964.84
2023-03-11T04:35:03.301Z,964.92
2023-03-11T04:36:03.425Z,964.79
2023-03-11T04:37:03.237Z,964.87
2023-03-11T04:38:03.369Z,964.87
2023-03-11T04:39:03.302Z,965.01
2023-03-11T04:40:03.347Z,965.06
2023-03-11T04:41:03.323Z,964.98
2023-03-11T04:42:04.485Z,964.84
2023-03-11T04:43:03.197Z,964.98
2023-03-11T04:44:03.284Z,965.04
2023-03-11T04:45:03.266Z,964.99
2023-03-11T04:46:03.173Z,965.10
2023-03-11T04:47:03.284Z,965.21
2023-03-11T04:48:03.226Z,965.13
2023-03-11T04:49:03.293Z,965.13
2023-03-11T04:50:03.402Z,965.32
2023-03-11T04:51:03.433Z,965.27
2023-03-11T04:52:03.475Z,965.32
2023-03-11T04:53:03.575Z,965.32
2023-03-11T04:54:03.746Z,965.41
2023-03-11T04:55:03.707Z,965.38
2023-03-11T04:56:03.663Z,965.29
2023-03-11T04:57:03.654Z,965.32
2023-03-11T04:58:03.625Z,965.32
2023-03-11T04:59:03.585Z,965.41
2023-03-11T05:00:03.620Z,965.38
2023-03-11T05:01:03.671Z,965.43
2023-03-11T05:02:03.637Z,965.40
2023-03-11T05:03:03.740Z,965.43
2023-03-11T05:04:03.673Z,965.43
2023-03-11T05:05:03.757Z,965.24
2023-03-11T05:06:03.983Z,965.49
2023-03-11T05:07:03.816Z,965.38
2023-03-11T05:08:03.887Z,965.49
2023-03-11T05:09:03.901Z,965.38
2023-03-11T05:10:03.888Z,965.54
2023-03-11T05:11:02.901Z,965.43
2023-03-11T05:12:02.905Z,965.62
2023-03-11T05:13:03.019Z,965.57
2023-03-11T05:14:03.888Z,965.57
2023-03-11T05:15:03.818Z,965.54
2023-03-11T05:16:03.965Z,965.49
2023-03-11T05:17:03.879Z,965.70
2023-03-11T05:18:03.908Z,965.57
2023-03-11T05:19:02.976Z,965.49
2023-03-11T05:20:03.024Z,965.54
2023-03-11T05:21:03.008Z,965.60
2023-03-11T05:22:03.037Z,965.49
2023-03-11T05:23:03.166Z,965.49
2023-03-11T05:24:03.026Z,965.64
2023-03-11T05:25:03.726Z,965.54
2023-03-11T05:26:03.778Z,965.64
2023-03-11T05:27:03.883Z,965.51
2023-03-11T05:28:03.863Z,965.75
2023-03-11T05:29:03.895Z,965.51
2023-03-11T05:30:02.963Z,965.70
2023-03-11T05:31:03.221Z,965.76
2023-03-11T05:32:03.049Z,965.67
2023-03-11T05:33:03.003Z,965.65
2023-03-11T05:34:03.013Z,965.76
2023-03-11T05:35:03.023Z,965.70
2023-03-11T05:36:03.105Z,965.70
2023-03-11T05:37:03.643Z,965.67
2023-03-11T05:38:03.085Z,965.76
2023-03-11T05:39:03.101Z,965.95
2023-03-11T05:40:03.010Z,965.90
2023-03-11T05:41:03.160Z,965.87
2023-03-11T05:42:03.120Z,965.90
2023-03-11T05:43:03.272Z,965.98
2023-03-11T05:44:03.589Z,965.87
2023-03-11T05:45:03.725Z,966.09
2023-03-11T05:46:03.758Z,965.98
2023-03-11T05:47:03.765Z,965.93
2023-03-11T05:48:03.771Z,966.01
2023-03-11T05:49:03.787Z,965.98
2023-03-11T05:50:03.276Z,966.12
2023-03-11T05:51:03.283Z,966.09
2023-03-11T05:52:03.412Z,966.12
2023-03-11T05:53:03.475Z,965.93
2023-03-11T05:54:03.607Z,966.21
2023-03-11T05:55:03.565Z,966.09
2023-03-11T05:56:03.615Z,966.12
2023-03-11T05:57:03.682Z,966.21
2023-03-11T05:58:03.793Z,966.24
2023-03-11T05:59:03.740Z,966.26
2023-03-11T06:00:03.845Z,966.18
2023-03-11T06:01:03.749Z,966.21
2023-03-11T06:02:03.814Z,966.18
2023-03-11T06:03:03.850Z,966.18
2023-03-11T06:04:04.144Z,966.24
2023-03-11T06:05:05.170Z,966.15
2023-03-11T06:06:03.069Z,966.16
2023-03-11T06:07:03.205Z,966.15
2023-03-11T06:08:03.117Z,966.18
2023-03-11T06:09:03.202Z,966.40
2023-03-11T06:10:03.233Z,966.18
2023-03-11T06:11:03.236Z,966.12
2023-03-11T06:12:03.286Z,966.15
2023-03-11T06:13:03.317Z,966.21
2023-03-11T06:14:03.224Z,966.40
2023-03-11T06:15:03.283Z,966.37
2023-03-11T06:16:03.354Z,966.43
2023-03-11T06:17:03.329Z,966.32
2023-03-11T06:18:03.198Z,966.54
2023-03-11T06:19:03.041Z,966.46
2023-03-11T06:20:03.090Z,966.40
2023-03-11T06:21:03.090Z,966.48
2023-03-11T06:22:03.125Z,966.48
2023-03-11T06:23:03.364Z,966.37
2023-03-11T06:24:03.405Z,966.48
2023-03-11T06:25:03.253Z,966.43
2023-03-11T06:26:03.211Z,966.54
2023-03-11T06:27:03.241Z,966.54
2023-03-11T06:28:03.308Z,966.57
2023-03-11T06:29:03.174Z,966.65
2023-03-11T06:30:03.254Z,966.40
2023-03-11T06:31:03.185Z,966.59
2023-03-11T06:32:03.229Z,966.54
2023-03-11T06:33:03.155Z,966.73
2023-03-11T06:34:03.240Z,966.73
2023-03-11T06:35:03.175Z,966.67
2023-03-11T06:36:03.239Z,966.76
2023-03-11T06:37:03.119Z,966.59
2023-03-11T06:38:03.066Z,966.68
2023-03-11T06:39:03.154Z,966.56
2023-03-11T06:40:03.094Z,966.79
2023-03-11T06:41:03.007Z,966.68
2023-03-11T06:42:03.134Z,966.76
2023-03-11T06:43:03.041Z,966.76
2023-03-11T06:44:02.964Z,966.79
2023-03-11T06:45:03.083Z,966.84
2023-03-11T06:46:03.252Z,966.76
2023-03-11T06:47:03.193Z,966.90
2023-03-11T06:48:03.160Z,966.84
2023-03-11T06:49:03.122Z,966.96
2023-03-11T06:50:03.259Z,966.84
2023-03-11T06:51:03.227Z,966.84
2023-03-11T06:52:03.118Z,966.79
2023-03-11T06:53:03.571Z,966.90
2023-03-11T06:54:03.548Z,967.03
2023-03-11T06:55:03.445Z,967.01
2023-03-11T06:56:03.626Z,966.92
2023-03-11T06:57:03.760Z,966.90
2023-03-11T06:58:03.803Z,967.08
2023-03-11T06:59:03.760Z,966.92
2023-03-11T07:00:03.808Z,967.05
2023-03-11T07:01:03.951Z,967.11
2023-03-11T07:02:03.907Z,967.02
2023-03-11T07:03:03.833Z,967.05
2023-03-11T07:04:04.012Z,967.10
2023-03-11T07:05:03.864Z,967.13
2023-03-11T07:06:06.878Z,967.13
2023-03-11T07:07:03.972Z,967.02
2023-03-11T07:08:03.928Z,967.13
2023-03-11T07:09:03.936Z,967.27
2023-03-11T07:10:03.786Z,967.21
2023-03-11T07:11:03.981Z,967.30
2023-03-11T07:12:04.083Z,967.27
2023-03-11T07:13:03.328Z,967.24
2023-03-11T07:14:03.199Z,967.43
2023-03-11T07:15:03.191Z,967.43
2023-03-11T07:16:03.223Z,967.43
2023-03-11T07:17:03.319Z,967.42
2023-03-11T07:18:03.380Z,967.42
2023-03-11T07:19:03.202Z,967.40
2023-03-11T07:20:03.210Z,967.43
2023-03-11T07:21:03.080Z,967.56
2023-03-11T07:22:03.146Z,967.56
2023-03-11T07:23:03.265Z,967.62
2023-03-11T07:24:03.359Z,967.57
2023-03-11T07:25:03.351Z,967.62
2023-03-11T07:26:03.415Z,967.76
2023-03-11T07:27:03.898Z,967.59
2023-03-11T07:28:03.831Z,967.59
2023-03-11T07:29:03.779Z,967.73
2023-03-11T07:30:02.963Z,967.81
2023-03-11T07:31:02.913Z,967.73
2023-03-11T07:32:03.123Z,967.75
2023-03-11T07:33:02.988Z,967.78
2023-03-11T07:34:03.004Z,967.78
2023-03-11T07:35:03.143Z,967.78
2023-03-11T07:36:03.125Z,967.80
2023-03-11T07:37:03.233Z,967.83
2023-03-11T07:38:03.187Z,967.72
2023-03-11T07:39:04.762Z,967.66
2023-03-11T07:40:03.241Z,967.88
2023-03-11T07:41:03.274Z,967.69
2023-03-11T07:42:03.178Z,967.77
2023-03-11T07:43:03.224Z,967.83
2023-03-11T07:44:03.247Z,967.85
2023-03-11T07:45:03.151Z,967.80
2023-03-11T07:46:03.129Z,967.88
2023-03-11T07:47:02.945Z,967.88
2023-03-11T07:48:02.999Z,968.04
2023-03-11T07:49:03.083Z,967.96
2023-03-11T07:50:03.152Z,967.99
2023-03-11T07:51:03.088Z,967.93
2023-03-11T07:52:03.023Z,967.96
2023-03-11T07:53:03.085Z,967.90
2023-03-11T07:54:03.173Z,967.93
2023-03-11T07:55:03.240Z,968.06
2023-03-11T07:56:03.274Z,967.98
2023-03-11T07:57:03.256Z,968.17
2023-03-11T07:58:03.282Z,968.12
2023-03-11T07:59:03.325Z,968.06
2023-03-11T08:00:03.138Z,968.03
2023-03-11T08:01:03.098Z,968.08
2023-03-11T08:02:03.222Z,968.20
2023-03-11T08:03:03.096Z,968.00
2023-03-11T08:04:03.051Z,968.08
2023-03-11T08:05:03.461Z,968.14
2023-03-11T08:06:03.554Z,968.17
2023-03-11T08:07:03.562Z,968.39
2023-03-11T08:08:03.544Z,968.39
2023-03-11T08:09:03.580Z,968.31
2023-03-11T08:10:03.639Z,968.11
2023-03-11T08:11:03.746Z,968.27
2023-03-11T08:12:03.625Z,968.32
2023-03-11T08:13:03.791Z,968.38
2023-03-11T08:14:03.746Z,968.43
2023-03-11T08:15:03.763Z,968.37
2023-03-11T08:16:03.993Z,968.62
2023-03-11T08:17:03.891Z,968.45
2023-03-11T08:18:03.829Z,968.42
2023-03-11T08:19:03.876Z,968.44
2023-03-11T08:20:03.827Z,968.41
2023-03-11T08:21:03.932Z,968.49
2023-03-11T08:22:03.912Z,968.58
2023-03-11T08:23:03.027Z,968.63
2023-03-11T08:24:06.885Z,968.66
2023-03-11T08:25:02.961Z,968.54
2023-03-11T08:26:02.921Z,968.66
2023-03-11T08:27:03.891Z,968.63
2023-03-11T08:28:03.010Z,968.55
2023-03-11T08:29:03.011Z,968.68
2023-03-11T08:30:02.954Z,968.76
2023-03-11T08:31:04.017Z,968.60
2023-03-11T08:32:03.191Z,968.60
2023-03-11T08:33:03.196Z,968.65
2023-03-11T08:34:04.010Z,968.75
2023-03-11T08:35:04.096Z,968.68
2023-03-11T08:36:04.273Z,968.72
2023-03-11T08:37:03.172Z,968.68
2023-03-11T08:38:03.202Z,968.81
2023-03-11T08:39:03.376Z,968.76
2023-03-11T08:40:03.241Z,968.79
2023-03-11T08:41:03.182Z,968.98
2023-03-11T08:42:03.332Z,969.01
2023-03-11T08:43:03.393Z,969.04
2023-03-11T08:44:03.497Z,969.04
2023-03-11T08:45:03.492Z,969.10
2023-03-11T08:46:03.641Z,969.18
2023-03-11T08:47:03.663Z,969.18
2023-03-11T08:48:03.614Z,969.13
2023-03-11T08:49:03.603Z,969.13
2023-03-11T08:50:03.670Z,969.24
2023-03-11T08:51:03.609Z,969.24
2023-03-11T08:52:03.614Z,969.01
2023-03-11T08:53:03.698Z,969.04
2023-03-11T08:54:03.698Z,969.04
2023-03-11T08:55:03.604Z,969.09
2023-03-11T08:56:03.653Z,968.97
2023-03-11T08:57:03.668Z,969.11
2023-03-11T08:58:03.639Z,969.13
2023-03-11T08:59:03.630Z,969.18
2023-03-11T09:00:03.658Z,969.13
2023-03-11T09:01:03.664Z,969.26
2023-03-11T09:02:03.660Z,969.29
2023-03-11T09:03:03.830Z,969.15
2023-03-11T09:04:03.627Z,969.24
2023-03-11T09:05:03.715Z,969.29
2023-03-11T09:06:03.109Z,969.29
2023-03-11T09:07:03.056Z,969.38
2023-03-11T09:08:05.866Z,969.47
2023-03-11T09:09:03.105Z,969.44
2023-03-11T09:10:03.160Z,969.50
2023-03-11T09:11:03.165Z,969.50
2023-03-11T09:12:03.201Z,969.56
2023-03-11T09:13:03.175Z,969.53
2023-03-11T09:14:03.132Z,969.53
2023-03-11T09:15:03.218Z,969.64
2023-03-11T09:16:03.247Z,969.67
2023-03-11T09:17:03.252Z,969.62
2023-03-11T09:18:03.255Z,969.81
2023-03-11T09:19:03.143Z,969.64
2023-03-11T09:20:03.221Z,969.72
2023-03-11T09:21:03.160Z,969.81
2023-03-11T09:22:03.108Z,969.67
2023-03-11T09:23:03.121Z,969.75
2023-03-11T09:24:03.070Z,969.70
2023-03-11T09:25:03.142Z,969.70
2023-03-11T09:26:03.070Z,969.81
2023-03-11T09:27:03.178Z,969.78
2023-03-11T09:28:03.231Z,969.61
2023-03-11T09:29:03.220Z,969.72
2023-03-11T09:30:03.218Z,969.86
2023-03-11T09:31:03.409Z,969.75
2023-03-11T09:32:03.211Z,969.78
2023-03-11T09:33:03.177Z,969.72
2023-03-11T09:34:03.195Z,969.89
2023-03-11T09:35:03.271Z,969.80
2023-03-11T09:36:03.386Z,969.98
2023-03-11T09:37:03.293Z,969.91
2023-03-11T09:38:03.239Z,969.77
2023-03-11T09:39:03.315Z,969.88
2023-03-11T09:40:03.382Z,970.07
2023-03-11T09:41:03.337Z,969.98
2023-03-11T09:42:03.369Z,970.06
2023-03-11T09:43:03.382Z,970.21
2023-03-11T09:44:03.449Z,970.06
2023-03-11T09:45:03.389Z,970.21
2023-03-11T09:46:03.503Z,970.12
2023-03-11T09:47:03.696Z,970.21
2023-03-11T09:48:03.577Z,970.18
2023-03-11T09:49:03.445Z,970.23
2023-03-11T09:50:03.512Z,970.29
2023-03-11T09:51:03.572Z,970.29
2023-03-11T09:52:03.459Z,970.34
2023-03-11T09:53:03.546Z,970.31
2023-03-11T09:54:03.560Z,970.47
2023-03-11T09:55:03.559Z,970.42
2023-03-11T09:56:03.571Z,970.42
2023-03-11T09:57:03.584Z,970.37
2023-03-11T09:58:03.534Z,970.42
2023-03-11T09:59:03.644Z,970.56
2023-03-11T10:00:03.684Z,970.42
2023-03-11T10:01:03.789Z,970.50
2023-03-11T10:02:03.945Z,970.40
2023-03-11T10:03:04.090Z,970.34
2023-03-11T10:04:02.929Z,970.44
2023-03-11T10:05:02.949Z,970.53
2023-03-11T10:06:02.999Z,970.64
2023-03-11T10:07:02.936Z,970.40
2023-03-11T10:08:03.150Z,970.64
2023-03-11T10:09:03.131Z,970.64
2023-03-11T10:10:03.174Z,970.50
2023-03-11T10:11:03.204Z,970.62
2023-03-11T10:12:03.331Z,970.64
2023-03-11T10:13:03.286Z,970.64
2023-03-11T10:14:03.176Z,970.56
2023-03-11T10:15:03.139Z,970.75
2023-03-11T10:16:03.228Z,970.61
2023-03-11T10:17:03.184Z,970.61
2023-03-11T10:18:03.177Z,970.50
2023-03-11T10:19:03.218Z,970.58
2023-03-11T10:20:03.094Z,970.44
2023-03-11T10:21:03.103Z,970.55
2023-03-11T10:22:03.030Z,970.77
2023-03-11T10:23:03.151Z,970.63
2023-03-11T10:24:03.040Z,970.77
2023-03-11T10:25:03.106Z,970.58
2023-03-11T10:26:03.149Z,970.58
2023-03-11T10:27:03.093Z,970.63
2023-03-11T10:28:03.155Z,970.50
2023-03-11T10:29:03.006Z,970.75
2023-03-11T10:30:03.157Z,970.70
2023-03-11T10:31:03.224Z,970.78
2023-03-11T10:32:03.184Z,970.81
2023-03-11T10:33:03.150Z,970.75
2023-03-11T10:34:03.260Z,970.67
2023-03-11T10:35:03.281Z,970.84
2023-03-11T10:36:03.445Z,970.70
2023-03-11T10:37:03.255Z,970.78
2023-03-11T10:38:03.392Z,970.64
2023-03-11T10:39:03.434Z,970.78
2023-03-11T10:40:03.385Z,970.67
2023-03-11T10:41:03.357Z,970.81
2023-03-11T10:42:03.342Z,970.67
2023-03-11T10:43:03.273Z,970.70
2023-03-11T10:44:03.354Z,970.89
2023-03-11T10:45:03.276Z,970.81
2023-03-11T10:46:03.391Z,970.86
2023-03-11T10:47:03.329Z,970.89
2023-03-11T10:48:03.337Z,970.67
2023-03-11T10:49:03.283Z,970.69
2023-03-11T10:50:03.347Z,970.86
2023-03-11T10:51:03.393Z,970.69
2023-03-11T10:52:03.361Z,970.78
2023-03-11T10:53:03.300Z,970.92
2023-03-11T10:54:03.370Z,970.89
2023-03-11T10:55:03.238Z,970.83
2023-03-11T10:56:03.207Z,970.86
2023-03-11T10:57:03.245Z,970.75
2023-03-11T10:58:03.336Z,971.05
2023-03-11T10:59:03.358Z,970.94
2023-03-11T11:00:03.457Z,970.80
2023-03-11T11:01:03.608Z,971.00
2023-03-11T11:02:03.476Z,970.89
2023-03-11T11:03:03.413Z,970.89
2023-03-11T11:04:03.503Z,971.00
2023-03-11T11:05:03.482Z,971.12
2023-03-11T11:06:03.622Z,971.06
2023-03-11T11:07:03.669Z,971.00
2023-03-11T11:08:03.850Z,971.12
2023-03-11T11:09:03.831Z,970.98
2023-03-11T11:10:03.792Z,971.06
2023-03-11T11:11:03.931Z,971.06
2023-03-11T11:12:03.759Z,971.04
2023-03-11T11:13:03.690Z,971.10
2023-03-11T11:14:03.705Z,970.99
2023-03-11T11:15:03.701Z,971.02
2023-03-11T11:16:03.768Z,971.10
2023-03-11T11:17:03.806Z,971.27
2023-03-11T11:18:03.943Z,971.10
2023-03-11T11:19:03.882Z,971.19
2023-03-11T11:20:03.812Z,971.07
2023-03-11T11:21:03.900Z,971.08
2023-03-11T11:22:03.845Z,971.05
2023-03-11T11:23:03.838Z,971.02
2023-03-11T11:24:03.756Z,970.99
2023-03-11T11:25:03.806Z,971.05
2023-03-11T11:26:03.795Z,970.88
2023-03-11T11:27:03.867Z,970.91
2023-03-11T11:28:03.824Z,971.08
2023-03-11T11:29:03.868Z,971.00
2023-03-11T11:30:03.849Z,971.03
2023-03-11T11:31:04.308Z,970.83
2023-03-11T11:32:03.977Z,970.94
2023-03-11T11:33:02.983Z,971.17
2023-03-11T11:34:02.979Z,971.06
2023-03-11T11:35:03.120Z,971.03
2023-03-11T11:36:03.101Z,970.94
2023-03-11T11:37:03.150Z,970.89
2023-03-11T11:38:03.302Z,970.91
2023-03-11T11:39:03.356Z,971.05
2023-03-11T11:40:03.432Z,970.89
2023-03-11T11:41:03.435Z,970.88
2023-03-11T11:42:03.389Z,971.02
2023-03-11T11:43:03.391Z,971.08
2023-03-11T11:44:03.341Z,970.91
2023-03-11T11:45:03.382Z,971.02
2023-03-11T11:46:03.429Z,970.94
2023-03-11T11:47:06.431Z,970.91
2023-03-11T11:48:03.408Z,970.88
2023-03-11T11:49:03.400Z,970.77
2023-03-11T11:50:03.422Z,970.88
2023-03-11T11:51:03.437Z,970.94
2023-03-11T11:52:03.537Z,970.85
2023-03-11T11:53:03.410Z,970.96
2023-03-11T11:54:03.404Z,970.93
2023-03-11T11:55:03.517Z,970.88
2023-03-11T11:56:03.482Z,971.04
2023-03-11T11:57:03.557Z,970.90
2023-03-11T11:58:03.467Z,970.99
2023-03-11T11:59:03.538Z,970.88
2023-03-11T12:00:03.732Z,970.84
2023-03-11T12:01:03.605Z,970.87
2023-03-11T12:02:03.572Z,970.90
2023-03-11T12:03:03.679Z,970.92
2023-03-11T12:04:03.776Z,970.84
2023-03-11T12:05:03.663Z,970.95
2023-03-11T12:06:03.793Z,970.84
2023-03-11T12:07:03.667Z,970.92
2023-03-11T12:08:03.734Z,970.92
2023-03-11T12:09:03.680Z,971.00
2023-03-11T12:10:23.552Z,970.98
2023-03-11T12:11:03.672Z,971.00
2023-03-11T12:12:03.664Z,971.08
2023-03-11T12:13:03.698Z,971.11
2023-03-11T12:14:03.712Z,971.03
2023-03-11T12:15:03.664Z,971.14
2023-03-11T12:16:03.978Z,971.02
2023-03-11T12:17:04.683Z,971.08
2023-03-11T12:18:03.693Z,971.19
2023-03-11T12:19:03.674Z,971.11
2023-03-11T12:20:03.738Z,971.08
2023-03-11T12:21:03.752Z,971.00
2023-03-11T12:22:03.789Z,971.02
2023-03-11T12:23:03.820Z,971.19
2023-03-11T12:24:03.795Z,971.19
2023-03-11T12:25:03.870Z,971.36
2023-03-11T12:26:02.946Z,971.36
2023-03-11T12:27:03.084Z,971.42
2023-03-11T12:28:03.148Z,971.19